Time;durP1;ratioP1;P1;durP2;ratioP2;P2;SDS_P1;SDS_P2;PMS_P1;PMS_P2;Temp;Humidity;BMP_temperature;BMP_pressure;BME280_temperature;BME280_humidity;BME280_pressure;Samples;Min_cycle;Max_cycle;Signal;HPM_P1;HPM_P2
2022/09/01 00:00:27;;;;;;;;;15.00;12.75;;;;;22.40;49.87;101350.78;5056673;28;45362;-79
2022/09/01 00:02:53;;;;;;;;;17.50;15.25;;;;;22.32;49.52;101353.91;5056653;28;45930;-80
2022/09/01 00:05:18;;;;;;;;;16.25;14.75;;;;;22.29;49.64;101350.63;5038326;28;45451;-79
2022/09/01 00:07:44;;;;;;;;;13.00;12.25;;;;;22.30;49.54;101358.47;5055559;28;73336;-79
2022/09/01 00:10:10;;;;;;;;;14.50;12.25;;;;;22.29;49.56;101353.28;5056231;28;45293;-79
2022/09/01 00:12:36;;;;;;;;;14.25;13.00;;;;;22.21;49.92;101341.41;5056536;28;45410;-78
2022/09/01 00:15:04;;;;;;;;;18.50;17.25;;;;;22.21;50.06;101349.34;5056298;28;46377;-79
2022/09/01 00:17:29;;;;;;;;;22.50;16.00;;;;;22.11;49.91;101345.63;5056298;28;45962;-79
2022/09/01 00:19:55;;;;;;;;;14.75;14.00;;;;;22.08;49.77;101353.75;5056412;28;45367;-79
2022/09/01 00:22:20;;;;;;;;;17.50;15.50;;;;;22.09;50.15;101359.94;5056345;28;45512;-79
2022/09/01 00:24:46;;;;;;;;;20.25;16.50;;;;;22.04;49.75;101352.28;5054965;28;71998;-79
2022/09/01 00:27:11;;;;;;;;;14.00;14.00;;;;;22.07;50.43;101349.44;5056047;28;49833;-79
2022/09/01 00:29:36;;;;;;;;;13.75;13.25;;;;;22.11;49.91;101350.91;5055304;28;69367;-79
2022/09/01 00:32:02;;;;;;;;;16.25;14.00;;;;;22.11;50.23;101342.13;5056047;28;45479;-79
2022/09/01 00:34:27;;;;;;;;;14.50;12.75;;;;;22.09;50.42;101341.38;5055868;28;45288;-79
2022/09/01 00:36:53;;;;;;;;;16.25;13.25;;;;;22.12;50.54;101347.31;5055806;28;49577;-79
2022/09/01 00:39:18;;;;;;;;;14.00;14.00;;;;;22.11;50.00;101342.13;5055035;28;61163;-79
2022/09/01 00:41:45;;;;;;;;;18.25;16.75;;;;;22.07;49.85;101340.63;5055441;28;61482;-79
2022/09/01 00:44:15;;;;;;;;;17.00;15.75;;;;;22.09;50.26;101346.69;5055680;28;46287;-79
2022/09/01 00:46:43;;;;;;;;;15.25;14.75;;;;;22.08;49.98;101345.81;5055869;28;45419;-79
2022/09/01 00:49:20;;;;;;;;;15.25;15.25;;;;;21.98;50.19;101332.34;5038112;28;45364;-79
2022/09/01 00:51:48;;;;;;;;;18.00;14.50;;;;;21.99;50.13;101335.81;5037933;28;45510;-79
2022/09/01 00:54:18;;;;;;;;;13.75;13.50;;;;;21.96;50.23;101339.53;5037263;28;45534;-79
2022/09/01 00:56:45;;;;;;;;;14.00;13.25;;;;;22.00;50.12;101340.19;5037862;28;45417;-79
2022/09/01 00:59:11;;;;;;;;;16.00;15.50;;;;;21.98;50.51;101334.16;5038062;28;45393;-79
2022/09/01 01:01:37;;;;;;;;;16.25;14.50;;;;;21.99;50.30;101338.47;5055945;28;45229;-79
2022/09/01 01:04:04;;;;;;;;;12.25;11.00;;;;;21.96;50.08;101330.75;5055423;28;46486;-79
2022/09/01 01:06:31;;;;;;;;;16.50;14.00;;;;;21.95;50.58;101326.41;5055582;28;45401;-79
2022/09/01 01:08:59;;;;;;;;;16.75;16.50;;;;;21.93;50.89;101325.66;5037625;28;45482;-79
2022/09/01 01:11:27;;;;;;;;;22.50;17.75;;;;;21.83;50.88;101320.97;5037880;28;45389;-79
2022/09/01 01:14:10;;;;;;;;;15.75;14.75;;;;;21.81;51.12;101335.28;5055610;28;45428;-79
2022/09/01 01:16:36;;;;;;;;;15.00;13.50;;;;;21.77;51.08;101326.69;5038456;28;45187;-79
2022/09/01 01:19:02;;;;;;;;;16.25;14.50;;;;;21.77;51.03;101324.03;5055618;28;45357;-79
2022/09/01 01:24:30;;;;;;;;;15.50;15.25;;;;;21.76;50.89;101342.69;5055145;28;45387;-79
2022/09/01 01:26:58;;;;;;;;;16.00;14.25;;;;;21.70;51.10;101333.34;5037549;28;45404;-79
2022/09/01 01:29:34;;;;;;;;;16.75;14.50;;;;;21.62;51.01;101333.00;5055410;28;45372;-79
2022/09/01 01:32:01;;;;;;;;;14.50;14.00;;;;;21.58;51.17;101335.03;5037569;28;45369;-79
2022/09/01 01:34:26;;;;;;;;;15.25;14.00;;;;;21.59;51.11;101334.06;5055263;28;45484;-79
2022/09/01 01:36:52;;;;;;;;;16.25;16.25;;;;;21.58;51.18;101335.03;5055274;28;45396;-79
2022/09/01 01:39:20;;;;;;;;;15.00;13.50;;;;;21.55;51.46;101335.22;5055070;28;45371;-78
2022/09/01 01:41:47;;;;;;;;;16.00;14.50;;;;;21.57;51.71;101332.47;5037511;28;45421;-79
2022/09/01 01:44:16;;;;;;;;;16.25;15.00;;;;;21.49;51.23;101330.31;5037560;28;46378;-79
2022/09/01 01:46:49;;;;;;;;;15.00;14.50;;;;;21.51;51.66;101324.91;5037208;28;45523;-79
2022/09/01 01:49:19;;;;;;;;;16.50;16.50;;;;;21.58;51.95;101335.03;5055481;28;45372;-79
2022/09/01 01:51:46;;;;;;;;;21.25;17.50;;;;;21.55;51.17;101329.06;5054819;28;45187;-78
2022/09/01 01:54:12;;;;;;;;;19.00;14.00;;;;;21.53;51.92;101329.16;5036896;28;45410;-79
2022/09/01 01:56:40;;;;;;;;;19.75;14.00;;;;;21.57;51.48;101333.31;5037104;28;45860;-79
2022/09/01 01:59:09;;;;;;;;;22.50;15.50;;;;;21.53;52.06;101323.88;5055079;28;45412;-79
2022/09/01 02:01:34;;;;;;;;;22.25;17.50;;;;;21.56;51.87;101334.28;5055087;28;45882;-79
2022/09/01 02:04:00;;;;;;;;;19.25;16.00;;;;;21.49;51.69;101332.97;5054030;28;66535;-79
2022/09/01 02:06:26;;;;;;;;;18.75;14.75;;;;;21.50;51.87;101336.47;5054688;28;45471;-78
2022/09/01 02:08:57;;;;;;;;;18.25;15.00;;;;;21.51;52.06;101346.97;5055162;28;45427;-79
2022/09/01 02:11:24;;;;;;;;;13.75;13.00;;;;;21.54;51.79;101343.25;5054935;28;45353;-79
2022/09/01 02:13:55;;;;;;;;;18.00;15.75;;;;;21.55;51.90;101340.50;5037024;28;46684;-79
2022/09/01 02:16:21;;;;;;;;;17.00;14.00;;;;;21.56;52.01;101341.34;5056641;28;45744;-79
2022/09/01 02:18:46;;;;;;;;;15.50;14.25;;;;;21.52;51.82;101340.69;5058444;28;45445;-79
2022/09/01 02:21:14;;;;;;;;;15.25;14.25;;;;;21.48;51.76;101341.84;5057848;28;45431;-79
2022/09/01 02:23:40;;;;;;;;;15.50;13.75;;;;;21.50;51.84;101344.41;5058155;28;45657;-79
2022/09/01 02:26:07;;;;;;;;;13.00;13.00;;;;;21.46;51.50;101346.41;5058103;28;45442;-79
2022/09/01 02:28:35;;;;;;;;;12.25;12.25;;;;;21.44;52.00;101332.38;5040257;28;45370;-79
2022/09/01 02:31:02;;;;;;;;;16.00;13.50;;;;;21.40;52.40;101333.53;5040311;28;45464;-79
2022/09/01 02:33:29;;;;;;;;;13.75;13.25;;;;;21.40;52.39;101342.31;5057613;28;46592;-79
2022/09/01 02:35:57;;;;;;;;;16.25;12.00;;;;;21.37;52.25;101349.63;5057664;28;45648;-78
2022/09/01 02:38:28;;;;;;;;;13.50;13.50;;;;;21.32;52.76;101347.28;5058156;28;45294;-78
2022/09/01 02:40:55;;;;;;;;;13.00;13.00;;;;;21.25;52.24;101345.97;5040779;28;45599;-79
2022/09/01 02:43:21;;;;;;;;;12.25;11.50;;;;;21.23;52.68;101340.78;5039671;28;46196;-79
2022/09/01 02:45:53;;;;;;;;;14.00;11.50;;;;;21.19;52.69;101341.94;5057857;28;45365;-79
2022/09/01 02:48:21;;;;;;;;;13.25;11.75;;;;;21.16;52.54;101335.97;5057830;28;45439;-79
2022/09/01 02:50:46;;;;;;;;;15.75;13.00;;;;;21.14;52.91;101344.00;5057282;28;45420;-79
2022/09/01 02:53:14;;;;;;;;;11.00;10.25;;;;;21.05;52.57;101339.31;5056641;28;72927;-79
2022/09/01 02:55:39;;;;;;;;;10.50;9.75;;;;;21.03;53.22;101336.75;5057642;28;45910;-79
2022/09/01 02:58:09;;;;;;;;;12.25;10.25;;;;;20.99;53.16;101329.97;5057780;28;45410;-79
2022/09/01 03:00:36;;;;;;;;;15.00;13.00;;;;;21.04;53.10;101330.53;5057668;28;45321;-79
2022/09/01 03:03:01;;;;;;;;;17.00;15.50;;;;;21.03;52.97;101336.75;5057534;28;46502;-78
2022/09/01 03:05:29;;;;;;;;;13.75;13.75;;;;;20.99;52.86;101334.41;5057038;28;45492;-79
2022/09/01 03:07:59;;;;;;;;;16.25;15.00;;;;;20.97;53.47;101328.34;5057688;28;45383;-78
2022/09/01 03:10:31;;;;;;;;;18.25;16.25;;;;;20.92;53.28;101333.09;5057668;28;45246;-79
2022/09/01 03:13:07;;;;;;;;;14.50;12.75;;;;;20.89;53.62;101334.13;5057300;28;46690;-79
2022/09/01 03:15:34;;;;;;;;;19.00;17.50;;;;;20.86;53.56;101326.38;5057305;28;45373;-78
2022/09/01 03:18:01;;;;;;;;;12.25;11.75;;;;;20.82;53.07;101325.72;5057340;28;45297;-79
2022/09/01 03:20:28;;;;;;;;;15.00;14.00;;;;;20.82;53.56;101327.50;5057043;28;45337;-78
2022/09/01 03:22:56;;;;;;;;;14.25;12.50;;;;;20.84;53.67;101331.78;5057088;28;46392;-78
2022/09/01 03:25:23;;;;;;;;;15.75;12.75;;;;;20.82;53.72;101331.03;5057157;28;45401;-79
2022/09/01 03:27:50;;;;;;;;;13.75;11.75;;;;;20.78;53.56;101328.66;5057445;28;45345;-79
2022/09/01 03:30:15;;;;;;;;;15.25;13.50;;;;;20.74;54.02;101327.16;5057200;28;45338;-79
2022/09/01 03:32:41;;;;;;;;;14.50;11.50;;;;;20.71;54.31;101330.84;5056614;28;50573;-79
2022/09/01 03:35:08;;;;;;;;;14.50;10.75;;;;;20.61;53.93;101316.47;5055591;28;72921;-79
2022/09/01 03:37:35;;;;;;;;;18.50;12.75;;;;;20.65;54.08;101329.44;5057139;28;45363;-79
2022/09/01 03:40:03;;;;;;;;;14.00;12.25;;;;;20.63;53.97;101323.34;5057081;28;45504;-79
2022/09/01 03:42:30;;;;;;;;;13.00;12.25;;;;;20.60;53.75;101315.63;5056830;28;46193;-79
2022/09/01 03:44:56;;;;;;;;;12.25;10.00;;;;;20.57;54.21;101307.00;5056823;28;45633;-79
2022/09/01 03:47:22;;;;;;;;;13.50;12.25;;;;;20.57;54.19;101318.44;5057165;28;45365;-79
2022/09/01 03:49:48;;;;;;;;;11.50;10.50;;;;;20.54;54.78;101313.34;5038652;28;45322;-79
2022/09/01 03:52:16;;;;;;;;;12.00;10.75;;;;;20.53;54.21;101318.72;5056470;28;46824;-79
2022/09/01 03:54:41;;;;;;;;;13.50;10.00;;;;;20.53;54.37;101310.78;5056600;28;45968;-79
2022/09/01 03:57:08;;;;;;;;;12.75;12.75;;;;;20.50;54.98;101311.81;5056869;28;45420;-78
2022/09/01 03:59:34;;;;;;;;;12.25;12.25;;;;;20.48;54.84;101316.34;5056840;28;45615;-79
2022/09/01 04:02:01;;;;;;;;;11.25;9.50;;;;;20.40;55.11;101308.06;5056263;28;45364;-79
2022/09/01 04:04:28;;;;;;;;;10.75;10.75;;;;;20.44;55.56;101312.19;5056559;28;45855;-78
2022/09/01 04:06:53;;;;;;;;;12.25;11.25;;;;;20.45;54.89;101306.81;5039002;28;45352;-79
2022/09/01 04:09:19;;;;;;;;;11.25;11.25;;;;;20.44;54.95;101309.56;5037700;28;64869;-78
2022/09/01 04:11:45;;;;;;;;;12.25;9.00;;;;;20.47;55.00;101312.88;5056481;28;46491;-78
2022/09/01 04:14:11;;;;;;;;;10.75;10.75;;;;;20.48;55.35;101311.06;5056303;28;45496;-79
2022/09/01 04:19:26;;;;;;;;;10.25;9.75;;;;;20.45;55.39;101301.53;5056509;28;45374;-78
2022/09/01 04:21:54;;;;;;;;;18.00;11.75;;;;;20.45;55.74;101301.53;5056388;28;46158;-78
2022/09/01 04:24:23;;;;;;;;;10.00;9.00;;;;;20.48;56.04;101303.13;5056241;28;45396;-78
2022/09/01 04:26:49;;;;;;;;;10.75;10.00;;;;;20.48;55.89;101292.56;5056459;28;45420;-78
2022/09/01 04:29:18;;;;;;;;;10.50;9.75;;;;;20.49;55.79;101294.25;5056229;28;45373;-79
2022/09/01 04:31:44;;;;;;;;;13.50;10.75;;;;;20.51;55.67;101297.66;5055834;28;45353;-78
2022/09/01 04:34:12;;;;;;;;;13.00;9.50;;;;;20.52;55.86;101302.00;5038022;28;45410;-79
2022/09/01 04:36:40;;;;;;;;;10.00;10.00;;;;;20.57;55.73;101302.56;5056048;28;45273;-78
2022/09/01 04:39:08;;;;;;;;;12.00;9.50;;;;;20.54;55.41;101296.59;5055513;28;45426;-79
2022/09/01 04:41:37;;;;;;;;;16.25;12.25;;;;;20.48;55.78;101290.75;5055907;28;46673;-78
2022/09/01 04:44:05;;;;;;;;;11.00;11.00;;;;;20.54;55.81;101299.25;5037813;28;45885;-78
2022/09/01 04:46:34;;;;;;;;;8.25;8.25;;;;;20.54;55.94;101294.84;5055857;28;45336;-79
2022/09/01 04:49:02;;;;;;;;;13.00;10.50;;;;;20.49;55.70;101283.69;5038063;28;45571;-78
2022/09/01 04:51:28;;;;;;;;;10.25;10.25;;;;;20.52;55.88;101290.56;5055477;28;46507;-78
2022/09/01 04:53:56;;;;;;;;;14.00;11.75;;;;;20.51;56.32;101284.44;5055682;28;45317;-79
2022/09/01 04:56:23;;;;;;;;;14.25;11.00;;;;;20.53;56.02;101298.41;5056143;28;45329;-79
2022/09/01 04:58:49;;;;;;;;;11.50;11.00;;;;;20.52;56.07;101291.41;5055964;28;45388;-79
2022/09/01 05:01:20;;;;;;;;;14.00;10.50;;;;;20.53;55.85;101301.06;5055429;28;45347;-79
2022/09/01 05:04:00;;;;;;;;;12.50;12.00;;;;;20.52;56.05;101304.63;5055859;28;45839;-79
2022/09/01 05:06:26;;;;;;;;;12.25;9.75;;;;;20.50;56.09;101311.81;5039915;28;45398;-79
2022/09/01 05:08:52;;;;;;;;;12.00;11.25;;;;;20.49;55.80;101305.69;5037912;28;45455;-78
2022/09/01 05:11:18;;;;;;;;;10.25;10.25;;;;;20.45;56.09;101298.06;5055618;28;45596;-79
2022/09/01 05:13:45;;;;;;;;;10.75;9.00;;;;;20.48;56.20;101311.06;5055447;28;45439;-78
2022/09/01 05:16:13;;;;;;;;;9.75;8.75;;;;;20.50;56.49;101311.81;5037460;28;45473;-79
2022/09/01 05:18:46;;;;;;;;;12.25;7.75;;;;;20.48;56.26;101305.78;5055739;28;45385;-79
2022/09/01 05:21:15;;;;;;;;;13.25;10.75;;;;;20.46;56.76;101299.72;5055521;28;47510;-79
2022/09/01 05:23:41;;;;;;;;;11.75;10.50;;;;;20.53;56.55;101309.00;5037506;28;45452;-78
2022/09/01 05:26:33;;;;;;;;;8.75;8.25;;;;;20.56;56.46;101315.88;5055615;28;45447;-79
2022/09/01 05:29:02;;;;;;;;;10.75;10.50;;;;;20.54;56.22;101302.78;5051301;28;45467;-78
2022/09/01 05:31:33;;;;;;;;;12.00;8.75;;;;;20.60;55.93;101301.53;5020676;28;46510;-79
2022/09/01 05:34:00;;;;;;;;;13.00;10.50;;;;;20.58;56.54;101306.03;5035071;28;45788;-79
2022/09/01 05:36:27;;;;;;;;;13.00;12.25;;;;;20.62;56.42;101310.25;5062067;28;45374;-79
2022/09/01 05:38:53;;;;;;;;;15.75;9.50;;;;;20.64;56.82;101303.06;5055486;28;45613;-79
2022/09/01 05:41:19;;;;;;;;;13.25;12.50;;;;;20.64;56.18;101303.06;5055237;28;46319;-79
2022/09/01 05:43:47;;;;;;;;;10.25;10.25;;;;;20.66;56.84;101317.03;5054756;28;45498;-78
2022/09/01 05:46:15;;;;;;;;;10.75;10.00;;;;;20.68;55.96;101304.56;5055460;28;45400;-79
2022/09/01 05:48:41;;;;;;;;;8.00;7.00;;;;;20.69;56.02;101304.47;5037504;28;45367;-78
2022/09/01 05:51:07;;;;;;;;;14.75;12.00;;;;;20.77;56.18;101311.09;5056448;28;45325;-78
2022/09/01 05:53:33;;;;;;;;;15.25;12.00;;;;;20.79;55.80;101302.09;5058664;28;45705;-79
2022/09/01 05:55:59;;;;;;;;;11.00;10.25;;;;;20.82;55.76;101303.69;5057655;28;62681;-79
2022/09/01 05:58:26;;;;;;;;;15.00;12.00;;;;;20.84;56.01;101309.78;5058447;28;45284;-79
2022/09/01 06:00:54;;;;;;;;;13.50;12.00;;;;;20.87;56.09;101306.91;5040591;28;45419;-78
2022/09/01 06:03:21;;;;;;;;;11.50;9.50;;;;;20.83;55.47;101297.47;5058511;28;45407;-79
2022/09/01 06:05:51;;;;;;;;;13.50;10.00;;;;;20.90;55.59;101308.53;5058508;28;45311;-79
2022/09/01 06:08:18;;;;;;;;;13.75;13.25;;;;;20.85;55.62;101290.28;5040994;28;45407;-78
2022/09/01 06:10:44;;;;;;;;;12.00;11.50;;;;;20.87;55.01;101301.63;5058325;28;47348;-79
2022/09/01 06:13:10;;;;;;;;;18.25;11.25;;;;;20.94;56.15;101307.38;5057852;28;45315;-79
2022/09/01 06:15:39;;;;;;;;;13.00;11.50;;;;;21.02;56.19;101305.06;5058497;28;45382;-79
2022/09/01 06:18:06;;;;;;;;;12.00;11.50;;;;;20.98;56.54;101298.28;5040745;28;45586;-79
2022/09/01 06:20:32;;;;;;;;;11.75;11.75;;;;;21.10;55.90;101315.16;5058135;28;47431;-78
2022/09/01 06:22:58;;;;;;;;;13.00;11.75;;;;;21.14;55.81;101316.69;5040327;28;45389;-79
2022/09/01 06:25:25;;;;;;;;;12.00;12.00;;;;;21.15;55.17;101307.78;5058214;28;45488;-79
2022/09/01 06:27:51;;;;;;;;;10.50;10.25;;;;;21.20;54.72;101311.00;5057849;28;45503;-78
2022/09/01 06:30:19;;;;;;;;;11.00;10.50;;;;;21.25;54.70;101316.84;5040110;28;45542;-79
2022/09/01 06:32:45;;;;;;;;;12.00;12.00;;;;;21.31;55.16;101311.16;5040295;28;45443;-79
2022/09/01 06:35:12;;;;;;;;;12.00;10.00;;;;;21.38;54.65;101306.31;5057902;28;45312;-79
2022/09/01 06:37:38;;;;;;;;;11.75;11.50;;;;;21.47;53.99;101313.69;5057972;28;45365;-80
2022/09/01 06:40:05;;;;;;;;;13.75;13.75;;;;;21.50;55.06;101310.81;5057961;28;45653;-80
2022/09/01 06:42:34;;;;;;;;;12.50;10.00;;;;;21.53;53.99;101309.78;5039269;28;45863;-79
2022/09/01 06:45:00;;;;;;;;;11.50;10.75;;;;;21.54;53.68;101307.00;5058032;28;45330;-81
2022/09/01 06:47:27;;;;;;;;;13.00;12.00;;;;;21.56;53.80;101310.44;5040054;28;45569;-80
2022/09/01 06:49:54;;;;;;;;;11.25;10.50;;;;;21.56;53.93;101314.84;5039942;28;47026;-80
2022/09/01 06:52:22;;;;;;;;;14.00;11.00;;;;;21.61;53.97;101312.75;5057596;28;45376;-81
2022/09/01 06:54:49;;;;;;;;;12.75;11.25;;;;;21.65;53.95;101308.94;5057838;28;45370;-82
2022/09/01 06:57:15;;;;;;;;;14.00;12.00;;;;;21.73;53.59;101311.97;5039869;28;45416;-78
2022/09/01 06:59:40;;;;;;;;;12.75;12.00;;;;;21.79;53.56;101308.03;5056689;28;75681;-78
2022/09/01 07:02:07;;;;;;;;;15.25;13.00;;;;;21.86;53.16;101314.63;5038758;28;57624;-78
2022/09/01 07:04:33;;;;;;;;;15.50;12.00;;;;;21.87;52.94;101313.66;5040128;28;45361;-78
2022/09/01 07:06:59;;;;;;;;;15.50;12.50;;;;;21.90;52.91;101312.59;5057811;28;45349;-78
2022/09/01 07:09:25;;;;;;;;;12.75;10.25;;;;;21.95;52.43;101314.00;5042640;28;45565;-77
2022/09/01 07:11:51;;;;;;;;;12.75;11.50;;;;;22.00;53.13;101317.19;5057110;28;45395;-78
2022/09/01 07:14:16;;;;;;;;;13.75;11.75;;;;;22.06;52.42;101317.72;5059904;28;45424;-78
2022/09/01 07:16:45;;;;;;;;;12.50;11.00;;;;;22.06;52.26;101307.13;5077676;27;45358;-79
2022/09/01 07:19:14;;;;;;;;;11.50;11.00;;;;;22.03;52.64;101316.97;5077496;27;46614;-78
2022/09/01 07:21:42;;;;;;;;;15.00;11.75;;;;;22.03;52.39;101316.97;5077572;27;45435;-78
2022/09/01 07:24:09;;;;;;;;;15.00;12.25;;;;;21.97;52.27;101309.44;5068804;28;45463;-81
2022/09/01 07:26:35;;;;;;;;;15.50;11.25;;;;;22.01;52.37;101321.53;5067547;28;45548;-81
2022/09/01 07:29:03;;;;;;;;;14.75;14.75;;;;;22.02;52.83;101320.56;5059264;28;46495;-80
2022/09/01 07:31:35;;;;;;;;;12.25;12.00;;;;;22.02;52.85;101322.38;5057511;28;45918;-80
2022/09/01 07:34:03;;;;;;;;;14.00;13.50;;;;;22.04;52.66;101325.78;5030013;28;45587;-80
2022/09/01 07:36:28;;;;;;;;;14.00;12.75;;;;;22.11;52.17;101326.22;5072009;27;45470;-80
2022/09/01 07:38:54;;;;;;;;;13.50;11.00;;;;;22.15;52.68;101333.84;5057952;28;45820;-80
2022/09/01 07:41:21;;;;;;;;;15.50;11.50;;;;;22.21;52.77;101335.22;5071506;28;73254;-80
2022/09/01 07:43:51;;;;;;;;;11.50;11.00;;;;;22.29;52.43;101329.41;5069286;28;45467;-81
2022/09/01 07:46:18;;;;;;;;;13.50;11.00;;;;;22.35;52.50;101331.66;5056541;28;45280;-81
2022/09/01 07:48:44;;;;;;;;;16.00;13.25;;;;;22.40;52.58;101326.91;5047626;28;48355;-79
2022/09/01 07:51:11;;;;;;;;;13.50;12.25;;;;;22.40;51.96;101327.75;5061359;28;45370;-79
2022/09/01 07:53:37;;;;;;;;;11.25;11.25;;;;;22.49;52.00;101326.25;5061192;28;45454;-80
2022/09/01 07:56:08;;;;;;;;;15.50;13.00;;;;;22.53;51.96;101329.50;5056456;28;60043;-80
2022/09/01 07:58:35;;;;;;;;;13.50;12.00;;;;;22.56;52.12;101327.50;5034989;28;47188;-80
2022/09/01 08:01:01;;;;;;;;;13.50;12.50;;;;;22.54;52.00;101321.44;5056529;28;45829;-79
2022/09/01 08:03:28;;;;;;;;;12.75;11.75;;;;;22.62;51.67;101328.88;5057207;28;45543;-82
2022/09/01 08:05:56;;;;;;;;;10.75;10.00;;;;;22.66;51.32;101330.38;5056745;28;45316;-82
2022/09/01 08:08:22;;;;;;;;;13.50;13.50;;;;;22.67;50.99;101332.06;5039822;28;45713;-80
2022/09/01 08:10:48;;;;;;;;;16.75;13.50;;;;;22.68;51.76;101331.09;5055958;28;45430;-82
2022/09/01 08:13:14;;;;;;;;;15.50;13.00;;;;;22.70;51.51;101325.69;5032411;28;45436;-81
2022/09/01 08:15:41;;;;;;;;;10.75;9.75;;;;;22.69;51.42;101324.81;5056212;28;45309;-81
2022/09/01 08:18:06;;;;;;;;;14.00;11.50;;;;;22.72;51.48;101329.94;5071806;28;47194;-79
2022/09/01 08:20:38;;;;;;;;;12.75;10.75;;;;;22.73;51.53;101336.94;5055964;28;45429;-80
2022/09/01 08:23:04;;;;;;;;;14.25;13.75;;;;;22.78;51.66;101326.81;5056067;28;45369;-81
2022/09/01 08:25:31;;;;;;;;;15.50;13.75;;;;;22.83;51.78;101333.63;5056045;28;45586;-82
2022/09/01 08:27:56;;;;;;;;;14.75;12.00;;;;;22.88;51.23;101328.81;5052142;28;45463;-84
2022/09/01 08:30:22;;;;;;;;;11.00;8.50;;;;;22.90;51.39;101327.78;5065403;28;53973;-82
2022/09/01 08:32:48;;;;;;;;;13.50;13.00;;;;;22.97;51.11;101342.31;5049431;28;45608;-82
2022/09/01 08:35:15;;;;;;;;;12.50;10.25;;;;;22.99;51.26;101339.53;5047582;28;45754;-82
2022/09/01 08:37:41;;;;;;;;;12.00;11.50;;;;;22.99;51.87;101336.88;5037156;28;46266;-83
2022/09/01 08:40:07;;;;;;;;;10.50;10.50;;;;;23.12;51.05;101340.38;5055754;28;45899;-83
2022/09/01 08:42:52;;;;;;;;;13.00;12.25;;;;;23.19;50.89;101332.81;5055832;28;45349;-82
2022/09/01 08:45:32;;;;;;;;;12.75;12.75;;;;;23.24;50.89;101338.63;5055662;28;45371;-84
2022/09/01 08:48:24;;;;;;;;;11.25;10.25;;;;;23.35;50.69;101345.81;5046937;28;46357;-82
2022/09/01 08:51:00;;;;;;;;;14.00;11.50;;;;;23.42;50.14;101331.13;5073327;27;45338;-81
2022/09/01 08:53:37;;;;;;;;;10.25;10.25;;;;;23.50;50.63;101339.38;5047044;28;45406;-83
2022/09/01 08:56:03;;;;;;;;;14.25;12.25;;;;;23.58;50.34;101341.47;5054388;28;45451;-83
2022/09/01 08:58:30;;;;;;;;;14.50;11.50;;;;;23.69;49.91;101345.97;5084392;27;46317;-81
2022/09/01 09:00:59;;;;;;;;;12.00;12.00;;;;;23.75;50.01;101348.16;5025886;28;45977;-81
2022/09/01 09:04:00;;;;;;;;;12.50;10.50;;;;;23.81;49.76;101342.44;5037314;28;45478;-82
2022/09/01 09:06:50;;;;;;;;;13.00;12.50;;;;;23.90;49.22;101344.41;5032582;28;45655;-82
2022/09/01 09:09:15;;;;;;;;;14.75;10.25;;;;;23.94;49.21;101345.88;5041586;28;47101;-81
2022/09/01 09:12:01;;;;;;;;;12.00;11.00;;;;;23.96;49.14;101348.41;5037228;28;45876;-81
2022/09/01 09:14:54;;;;;;;;;17.00;12.50;;;;;24.01;48.89;101353.38;5038906;28;45376;-82
2022/09/01 09:17:24;;;;;;;;;13.25;13.25;;;;;24.03;48.76;101341.63;5037287;28;45408;-81
2022/09/01 09:19:50;;;;;;;;;12.75;11.25;;;;;24.20;48.72;101345.69;5044164;28;47207;-81
2022/09/01 09:22:18;;;;;;;;;12.00;11.75;;;;;24.34;48.51;101342.78;5036371;28;45436;-81
2022/09/01 09:25:06;;;;;;;;;13.50;11.00;;;;;24.49;48.17;101345.22;5039323;28;45451;-82
2022/09/01 09:27:35;;;;;;;;;15.00;10.00;;;;;24.60;48.18;101349.75;5046896;27;45459;-82
2022/09/01 09:30:08;;;;;;;;;12.50;12.50;;;;;24.67;47.94;101338.47;5059675;28;46395;-80
2022/09/01 09:32:50;;;;;;;;;15.50;13.00;;;;;24.84;47.62;101344.28;5059014;28;45915;-82
2022/09/01 09:35:24;;;;;;;;;16.00;11.75;;;;;24.99;47.12;101339.53;5059331;28;45476;-83
2022/09/01 09:37:49;;;;;;;;;12.75;11.75;;;;;25.14;46.90;101332.97;5050612;28;45490;-82
2022/09/01 09:40:25;;;;;;;;;14.25;14.25;;;;;25.30;46.77;101330.78;5039785;28;47099;-82
2022/09/01 09:42:53;;;;;;;;;13.75;11.00;;;;;25.48;46.50;101328.44;5059855;28;45470;-77
2022/09/01 09:45:29;;;;;;;;;12.25;11.00;;;;;25.66;45.61;101330.53;5071138;28;45480;-77
2022/09/01 09:47:56;;;;;;;;;10.75;10.75;;;;;25.81;45.42;101326.56;5061167;28;45433;-77
2022/09/01 09:50:34;;;;;;;;;12.75;10.50;;;;;25.93;45.19;101323.88;5040045;28;46661;-77
2022/09/01 09:53:26;;;;;;;;;14.00;12.25;;;;;26.05;44.84;101325.50;5058336;28;45334;-77
2022/09/01 09:55:56;;;;;;;;;9.50;9.00;;;;;26.01;44.71;101326.75;5058512;28;45283;-80
2022/09/01 09:58:25;;;;;;;;;10.75;10.00;;;;;25.92;44.77;101316.81;5071103;28;45430;-82
2022/09/01 10:01:04;;;;;;;;;11.00;11.00;;;;;25.87;44.45;101322.53;5060362;28;46289;-82
2022/09/01 10:03:41;;;;;;;;;13.25;10.75;;;;;25.81;44.17;101320.38;5048773;28;45783;-81
2022/09/01 10:06:13;;;;;;;;;12.00;12.00;;;;;25.74;44.35;101329.88;5057993;28;45368;-82
2022/09/01 10:08:44;;;;;;;;;13.00;11.75;;;;;25.69;44.37;101324.94;5059665;28;45415;-82
2022/09/01 10:11:12;;;;;;;;;9.25;9.25;;;;;25.71;44.98;101325.66;5060358;28;46680;-81
2022/09/01 10:13:37;;;;;;;;;15.00;12.50;;;;;25.75;44.57;101328.91;5045879;28;45798;-82
2022/09/01 10:16:22;;;;;;;;;12.25;12.25;;;;;25.78;44.69;101321.50;5077561;28;62407;-80
2022/09/01 10:18:50;;;;;;;;;12.25;11.00;;;;;25.84;44.24;101325.47;5054271;28;45500;-82
2022/09/01 10:21:28;;;;;;;;;12.25;12.00;;;;;25.89;44.02;101317.91;5039632;28;45490;-82
2022/09/01 10:23:53;;;;;;;;;11.75;10.00;;;;;25.92;44.20;101316.81;5046646;28;45454;-82
2022/09/01 10:26:26;;;;;;;;;13.50;11.50;;;;;25.96;43.96;101318.28;5057986;28;62735;-81
2022/09/01 10:29:11;;;;;;;;;17.00;15.00;;;;;25.99;44.26;101315.34;5055097;28;45473;-80
2022/09/01 10:31:39;;;;;;;;;12.50;10.25;;;;;26.05;44.20;101312.16;5076733;27;47372;-81
2022/09/01 10:34:05;;;;;;;;;12.75;12.00;;;;;26.11;43.70;101316.13;5048011;28;45809;-80
2022/09/01 10:36:32;;;;;;;;;14.75;12.25;;;;;26.13;43.32;101304.31;5024945;28;45560;-80
2022/09/01 10:38:57;;;;;;;;;12.25;12.25;;;;;26.14;43.57;101305.19;5036823;28;45592;-79
2022/09/01 10:41:42;;;;;;;;;13.25;11.00;;;;;26.22;43.23;101308.88;5048409;28;46228;-81
2022/09/01 10:44:09;;;;;;;;;10.75;10.00;;;;;26.32;43.28;101305.41;5051927;28;45886;-83
2022/09/01 10:46:39;;;;;;;;;13.75;11.75;;;;;26.44;43.96;101307.03;5038402;28;45368;-81
2022/09/01 10:49:32;;;;;;;;;11.75;11.25;;;;;26.58;43.53;101297.81;5056092;28;45284;-82
2022/09/01 10:51:58;;;;;;;;;14.75;11.75;;;;;26.71;43.42;101300.25;5070685;28;47591;-82
2022/09/01 10:54:39;;;;;;;;;12.00;12.00;;;;;26.84;42.74;101307.06;5059534;28;45989;-82
2022/09/01 10:57:11;;;;;;;;;11.25;9.25;;;;;26.85;42.16;101299.88;5061247;28;45345;-82
2022/09/01 10:59:37;;;;;;;;;10.00;9.00;;;;;26.88;42.30;101298.78;5039759;28;45332;-82
2022/09/01 11:02:15;;;;;;;;;12.50;11.25;;;;;26.90;42.35;101297.66;5054345;28;46484;-82
2022/09/01 11:04:40;;;;;;;;;13.50;11.50;;;;;26.96;42.10;101298.91;5058936;28;45628;-82
2022/09/01 11:07:17;;;;;;;;;11.00;10.67;;;;;27.00;41.51;101297.66;5059101;28;45348;-82
2022/09/01 11:09:47;;;;;;;;;10.50;9.75;;;;;27.01;42.17;101289.50;5057352;28;45422;-80
2022/09/01 11:12:46;;;;;;;;;10.50;9.50;;;;;27.15;42.21;101298.94;5057627;28;46115;-82
2022/09/01 11:15:14;;;;;;;;;12.00;11.00;;;;;27.22;41.81;101288.53;5075603;28;45375;-86
2022/09/01 11:17:51;;;;;;;;;12.75;9.00;;;;;27.35;41.69;101283.78;5068684;28;45269;-85
2022/09/01 11:20:22;;;;;;;;;12.00;8.00;;;;;27.45;39.83;101282.94;5045727;28;45292;-86
2022/09/01 11:23:04;;;;;;;;;7.00;6.00;;;;;27.50;40.16;101278.88;5037934;28;47294;-87